sensor_id;sensor_type;location;lat;lon;timestamp;P1;durP1;ratioP1;P2;durP2;ratioP2
17658;SDS011;8948;51.534;8.262;2022-10-22T00:03:30;3.45;;;1.55;;
17658;SDS011;8948;51.534;8.262;2022-10-22T00:08:31;2.78;;;1.77;;
17658;SDS011;8948;51.534;8.262;2022-10-22T00:13:32;17.17;;;2.00;;
17658;SDS011;8948;51.534;8.262;2022-10-22T00:18:32;6.18;;;1.63;;
17658;SDS011;8948;51.534;8.262;2022-10-22T00:23:34;5.43;;;2.00;;
17658;SDS011;8948;51.534;8.262;2022-10-22T00:28:34;7.70;;;2.40;;
17658;SDS011;8948;51.534;8.262;2022-10-22T00:33:35;12.02;;;2.28;;
17658;SDS011;8948;51.534;8.262;2022-10-22T00:38:35;5.53;;;1.98;;
17658;SDS011;8948;51.534;8.262;2022-10-22T00:49:30;7.57;;;2.03;;
17658;SDS011;8948;51.534;8.262;2022-10-22T00:54:32;8.05;;;2.45;;
17658;SDS011;8948;51.534;8.262;2022-10-22T00:59:33;5.68;;;1.85;;
17658;SDS011;8948;51.534;8.262;2022-10-22T01:04:35;4.50;;;2.00;;
17658;SDS011;8948;51.534;8.262;2022-10-22T01:09:38;13.88;;;2.20;;
17658;SDS011;8948;51.534;8.262;2022-10-22T01:20:28;11.73;;;2.58;;
17658;SDS011;8948;51.534;8.262;2022-10-22T01:31:01;5.63;;;2.13;;
17658;SDS011;8948;51.534;8.262;2022-10-22T01:36:04;10.82;;;2.55;;
17658;SDS011;8948;51.534;8.262;2022-10-22T01:41:05;8.38;;;2.25;;
17658;SDS011;8948;51.534;8.262;2022-10-22T01:46:06;7.40;;;2.35;;
17658;SDS011;8948;51.534;8.262;2022-10-22T01:51:44;7.13;;;2.38;;
17658;SDS011;8948;51.534;8.262;2022-10-22T02:07:58;5.85;;;2.70;;
17658;SDS011;8948;51.534;8.262;2022-10-22T02:13:14;13.45;;;2.60;;
17658;SDS011;8948;51.534;8.262;2022-10-22T02:18:20;13.35;;;3.00;;
17658;SDS011;8948;51.534;8.262;2022-10-22T02:23:23;9.70;;;2.50;;
17658;SDS011;8948;51.534;8.262;2022-10-22T02:33:44;9.10;;;2.15;;
17658;SDS011;8948;51.534;8.262;2022-10-22T02:38:50;4.13;;;2.20;;
17658;SDS011;8948;51.534;8.262;2022-10-22T02:43:52;9.02;;;2.42;;
17658;SDS011;8948;51.534;8.262;2022-10-22T02:48:54;11.00;;;2.70;;
17658;SDS011;8948;51.534;8.262;2022-10-22T02:53:54;10.07;;;2.78;;
17658;SDS011;8948;51.534;8.262;2022-10-22T02:58:55;14.15;;;2.60;;
17658;SDS011;8948;51.534;8.262;2022-10-22T03:03:56;11.27;;;2.78;;
17658;SDS011;8948;51.534;8.262;2022-10-22T03:08:56;6.32;;;2.58;;
17658;SDS011;8948;51.534;8.262;2022-10-22T03:13:57;5.15;;;2.67;;
17658;SDS011;8948;51.534;8.262;2022-10-22T03:18:57;7.80;;;2.38;;
17658;SDS011;8948;51.534;8.262;2022-10-22T03:23:59;12.00;;;2.75;;
17658;SDS011;8948;51.534;8.262;2022-10-22T03:29:04;7.03;;;2.30;;
17658;SDS011;8948;51.534;8.262;2022-10-22T03:34:05;10.50;;;2.53;;
17658;SDS011;8948;51.534;8.262;2022-10-22T03:39:06;15.73;;;3.22;;
17658;SDS011;8948;51.534;8.262;2022-10-22T03:44:08;16.83;;;3.15;;
17658;SDS011;8948;51.534;8.262;2022-10-22T03:49:08;7.18;;;3.20;;
17658;SDS011;8948;51.534;8.262;2022-10-22T03:54:09;7.95;;;3.22;;
17658;SDS011;8948;51.534;8.262;2022-10-22T03:59:10;6.28;;;2.72;;
17658;SDS011;8948;51.534;8.262;2022-10-22T04:04:12;10.60;;;3.17;;
17658;SDS011;8948;51.534;8.262;2022-10-22T04:09:12;11.25;;;2.92;;
17658;SDS011;8948;51.534;8.262;2022-10-22T04:14:13;11.77;;;3.20;;
17658;SDS011;8948;51.534;8.262;2022-10-22T04:19:13;12.25;;;2.78;;
17658;SDS011;8948;51.534;8.262;2022-10-22T04:24:14;10.13;;;2.72;;
17658;SDS011;8948;51.534;8.262;2022-10-22T04:29:14;8.27;;;2.58;;
17658;SDS011;8948;51.534;8.262;2022-10-22T04:34:15;14.07;;;2.90;;
17658;SDS011;8948;51.534;8.262;2022-10-22T04:39:15;11.55;;;3.30;;
17658;SDS011;8948;51.534;8.262;2022-10-22T04:44:16;19.63;;;3.58;;
17658;SDS011;8948;51.534;8.262;2022-10-22T04:49:16;10.50;;;3.65;;
17658;SDS011;8948;51.534;8.262;2022-10-22T04:54:18;19.23;;;4.13;;
17658;SDS011;8948;51.534;8.262;2022-10-22T04:59:18;10.65;;;3.90;;
17658;SDS011;8948;51.534;8.262;2022-10-22T05:04:19;13.52;;;3.42;;
17658;SDS011;8948;51.534;8.262;2022-10-22T05:09:20;20.92;;;4.40;;
17658;SDS011;8948;51.534;8.262;2022-10-22T05:14:21;9.75;;;4.43;;
17658;SDS011;8948;51.534;8.262;2022-10-22T05:19:24;7.57;;;4.35;;
17658;SDS011;8948;51.534;8.262;2022-10-22T05:24:28;10.27;;;4.88;;
17658;SDS011;8948;51.534;8.262;2022-10-22T05:29:30;13.75;;;5.05;;
17658;SDS011;8948;51.534;8.262;2022-10-22T05:34:30;9.80;;;4.95;;
17658;SDS011;8948;51.534;8.262;2022-10-22T05:39:32;13.07;;;4.85;;
17658;SDS011;8948;51.534;8.262;2022-10-22T05:44:35;17.40;;;5.22;;
17658;SDS011;8948;51.534;8.262;2022-10-22T05:49:36;15.60;;;5.10;;
17658;SDS011;8948;51.534;8.262;2022-10-22T05:54:36;12.40;;;4.63;;
17658;SDS011;8948;51.534;8.262;2022-10-22T05:59:37;14.55;;;4.30;;
17658;SDS011;8948;51.534;8.262;2022-10-22T06:04:38;10.82;;;4.45;;
17658;SDS011;8948;51.534;8.262;2022-10-22T06:09:38;13.85;;;5.35;;
17658;SDS011;8948;51.534;8.262;2022-10-22T06:14:39;10.23;;;4.30;;
17658;SDS011;8948;51.534;8.262;2022-10-22T06:19:39;22.08;;;4.80;;
17658;SDS011;8948;51.534;8.262;2022-10-22T06:24:41;11.80;;;4.30;;
17658;SDS011;8948;51.534;8.262;2022-10-22T06:29:41;21.40;;;4.65;;
17658;SDS011;8948;51.534;8.262;2022-10-22T06:34:42;12.90;;;4.35;;
17658;SDS011;8948;51.534;8.262;2022-10-22T06:39:42;13.48;;;4.28;;
17658;SDS011;8948;51.534;8.262;2022-10-22T06:44:43;15.25;;;4.13;;
17658;SDS011;8948;51.534;8.262;2022-10-22T06:49:43;13.88;;;3.75;;
17658;SDS011;8948;51.534;8.262;2022-10-22T06:54:44;8.00;;;3.90;;
17658;SDS011;8948;51.534;8.262;2022-10-22T06:59:45;10.95;;;3.80;;
17658;SDS011;8948;51.534;8.262;2022-10-22T07:04:45;11.20;;;4.43;;
17658;SDS011;8948;51.534;8.262;2022-10-22T07:09:46;7.75;;;3.88;;
17658;SDS011;8948;51.534;8.262;2022-10-22T07:14:48;11.07;;;3.90;;
17658;SDS011;8948;51.534;8.262;2022-10-22T07:19:48;10.15;;;3.80;;
17658;SDS011;8948;51.534;8.262;2022-10-22T07:24:49;9.02;;;3.80;;
17658;SDS011;8948;51.534;8.262;2022-10-22T07:29:49;11.23;;;3.92;;
17658;SDS011;8948;51.534;8.262;2022-10-22T07:34:50;15.40;;;3.65;;
17658;SDS011;8948;51.534;8.262;2022-10-22T07:39:51;9.57;;;3.08;;
17658;SDS011;8948;51.534;8.262;2022-10-22T07:44:51;11.30;;;3.00;;
17658;SDS011;8948;51.534;8.262;2022-10-22T07:49:52;7.93;;;3.42;;
17658;SDS011;8948;51.534;8.262;2022-10-22T07:54:52;7.28;;;3.10;;
17658;SDS011;8948;51.534;8.262;2022-10-22T07:59:53;9.23;;;3.22;;
17658;SDS011;8948;51.534;8.262;2022-10-22T08:04:55;11.70;;;3.55;;
17658;SDS011;8948;51.534;8.262;2022-10-22T08:09:56;11.38;;;3.03;;
17658;SDS011;8948;51.534;8.262;2022-10-22T08:14:56;10.52;;;3.05;;
17658;SDS011;8948;51.534;8.262;2022-10-22T08:19:57;8.65;;;3.13;;
17658;SDS011;8948;51.534;8.262;2022-10-22T08:24:57;7.60;;;2.83;;
17658;SDS011;8948;51.534;8.262;2022-10-22T08:29:59;9.15;;;2.97;;
17658;SDS011;8948;51.534;8.262;2022-10-22T08:34:59;10.07;;;3.00;;
17658;SDS011;8948;51.534;8.262;2022-10-22T08:40:00;9.48;;;2.97;;
17658;SDS011;8948;51.534;8.262;2022-10-22T08:50:56;11.73;;;2.55;;
17658;SDS011;8948;51.534;8.262;2022-10-22T08:55:52;15.70;;;2.75;;
17658;SDS011;8948;51.534;8.262;2022-10-22T09:01:00;7.40;;;2.25;;
17658;SDS011;8948;51.534;8.262;2022-10-22T09:06:13;8.02;;;2.63;;
17658;SDS011;8948;51.534;8.262;2022-10-22T09:16:44;11.73;;;2.50;;
17658;SDS011;8948;51.534;8.262;2022-10-22T09:22:01;9.13;;;2.65;;
17658;SDS011;8948;51.534;8.262;2022-10-22T09:27:14;14.52;;;2.28;;
17658;SDS011;8948;51.534;8.262;2022-10-22T09:32:19;8.68;;;2.20;;
17658;SDS011;8948;51.534;8.262;2022-10-22T09:37:23;12.90;;;2.40;;
17658;SDS011;8948;51.534;8.262;2022-10-22T09:42:26;12.15;;;2.20;;
17658;SDS011;8948;51.534;8.262;2022-10-22T09:47:28;12.07;;;2.63;;
17658;SDS011;8948;51.534;8.262;2022-10-22T09:52:53;13.10;;;2.60;;
17658;SDS011;8948;51.534;8.262;2022-10-22T09:58:07;11.32;;;2.83;;
17658;SDS011;8948;51.534;8.262;2022-10-22T10:03:14;11.50;;;2.70;;
17658;SDS011;8948;51.534;8.262;2022-10-22T10:08:36;13.60;;;2.50;;
17658;SDS011;8948;51.534;8.262;2022-10-22T10:13:40;10.65;;;2.65;;
17658;SDS011;8948;51.534;8.262;2022-10-22T10:18:57;13.60;;;2.63;;
17658;SDS011;8948;51.534;8.262;2022-10-22T10:24:04;12.00;;;2.53;;
17658;SDS011;8948;51.534;8.262;2022-10-22T10:34:52;7.22;;;2.40;;
17658;SDS011;8948;51.534;8.262;2022-10-22T10:51:00;13.40;;;2.85;;
17658;SDS011;8948;51.534;8.262;2022-10-22T11:01:27;13.32;;;2.85;;
17658;SDS011;8948;51.534;8.262;2022-10-22T11:06:48;12.50;;;2.95;;
17658;SDS011;8948;51.534;8.262;2022-10-22T11:11:55;16.40;;;3.38;;
17658;SDS011;8948;51.534;8.262;2022-10-22T11:17:09;12.45;;;3.20;;
17658;SDS011;8948;51.534;8.262;2022-10-22T11:22:18;7.53;;;3.05;;
17658;SDS011;8948;51.534;8.262;2022-10-22T11:27:29;10.45;;;3.25;;
17658;SDS011;8948;51.534;8.262;2022-10-22T11:32:52;16.83;;;2.83;;
17658;SDS011;8948;51.534;8.262;2022-10-22T11:37:55;9.07;;;2.80;;
17658;SDS011;8948;51.534;8.262;2022-10-22T11:42:57;19.88;;;3.13;;
17658;SDS011;8948;51.534;8.262;2022-10-22T11:58:29;9.10;;;2.90;;
17658;SDS011;8948;51.534;8.262;2022-10-22T12:08:30;8.88;;;3.33;;
17658;SDS011;8948;51.534;8.262;2022-10-22T12:13:49;12.70;;;3.92;;
17658;SDS011;8948;51.534;8.262;2022-10-22T12:24:20;8.57;;;3.95;;
17658;SDS011;8948;51.534;8.262;2022-10-22T12:29:22;15.85;;;4.70;;
17658;SDS011;8948;51.534;8.262;2022-10-22T12:34:24;11.32;;;4.45;;
17658;SDS011;8948;51.534;8.262;2022-10-22T12:39:25;9.65;;;4.57;;
17658;SDS011;8948;51.534;8.262;2022-10-22T12:44:26;13.63;;;4.93;;
17658;SDS011;8948;51.534;8.262;2022-10-22T12:49:33;10.57;;;4.35;;
17658;SDS011;8948;51.534;8.262;2022-10-22T12:54:36;13.65;;;4.38;;
17658;SDS011;8948;51.534;8.262;2022-10-22T12:59:38;10.20;;;3.95;;
17658;SDS011;8948;51.534;8.262;2022-10-22T13:04:41;12.40;;;4.28;;
17658;SDS011;8948;51.534;8.262;2022-10-22T13:09:43;10.65;;;4.00;;
17658;SDS011;8948;51.534;8.262;2022-10-22T13:14:56;15.30;;;4.00;;
17658;SDS011;8948;51.534;8.262;2022-10-22T13:24:58;6.75;;;2.97;;
17658;SDS011;8948;51.534;8.262;2022-10-22T13:35:39;13.35;;;4.05;;
17658;SDS011;8948;51.534;8.262;2022-10-22T13:40:40;15.43;;;4.40;;
17658;SDS011;8948;51.534;8.262;2022-10-22T13:45:41;8.75;;;4.00;;
17658;SDS011;8948;51.534;8.262;2022-10-22T13:50:43;15.35;;;5.32;;
17658;SDS011;8948;51.534;8.262;2022-10-22T13:55:44;12.73;;;5.05;;
17658;SDS011;8948;51.534;8.262;2022-10-22T14:00:47;10.13;;;4.05;;
17658;SDS011;8948;51.534;8.262;2022-10-22T14:05:50;8.45;;;3.50;;
17658;SDS011;8948;51.534;8.262;2022-10-22T14:10:51;6.75;;;3.70;;
17658;SDS011;8948;51.534;8.262;2022-10-22T14:15:52;8.75;;;4.03;;
17658;SDS011;8948;51.534;8.262;2022-10-22T14:20:54;11.50;;;3.72;;
17658;SDS011;8948;51.534;8.262;2022-10-22T14:25:58;14.90;;;3.80;;
17658;SDS011;8948;51.534;8.262;2022-10-22T14:30:59;6.95;;;3.58;;
17658;SDS011;8948;51.534;8.262;2022-10-22T14:36:00;10.73;;;3.88;;
17658;SDS011;8948;51.534;8.262;2022-10-22T14:41:00;10.90;;;3.47;;
17658;SDS011;8948;51.534;8.262;2022-10-22T14:46:01;9.60;;;3.83;;
17658;SDS011;8948;51.534;8.262;2022-10-22T14:51:02;8.35;;;3.20;;
17658;SDS011;8948;51.534;8.262;2022-10-22T14:56:02;9.80;;;3.28;;
17658;SDS011;8948;51.534;8.262;2022-10-22T15:01:03;8.23;;;2.30;;
17658;SDS011;8948;51.534;8.262;2022-10-22T15:06:04;9.85;;;2.65;;
17658;SDS011;8948;51.534;8.262;2022-10-22T15:11:06;5.47;;;2.15;;
17658;SDS011;8948;51.534;8.262;2022-10-22T15:16:09;6.82;;;2.60;;
17658;SDS011;8948;51.534;8.262;2022-10-22T15:21:18;11.45;;;1.88;;
17658;SDS011;8948;51.534;8.262;2022-10-22T15:26:21;7.18;;;2.17;;
17658;SDS011;8948;51.534;8.262;2022-10-22T15:36:44;5.70;;;2.10;;
17658;SDS011;8948;51.534;8.262;2022-10-22T15:41:44;11.88;;;2.28;;
17658;SDS011;8948;51.534;8.262;2022-10-22T15:46:46;8.93;;;2.22;;
17658;SDS011;8948;51.534;8.262;2022-10-22T15:51:47;6.78;;;2.42;;
17658;SDS011;8948;51.534;8.262;2022-10-22T15:56:47;9.80;;;2.60;;
17658;SDS011;8948;51.534;8.262;2022-10-22T16:01:48;9.75;;;2.88;;
17658;SDS011;8948;51.534;8.262;2022-10-22T16:06:50;11.90;;;2.13;;
17658;SDS011;8948;51.534;8.262;2022-10-22T16:11:52;11.70;;;2.38;;
17658;SDS011;8948;51.534;8.262;2022-10-22T16:16:53;9.90;;;2.42;;
17658;SDS011;8948;51.534;8.262;2022-10-22T16:21:54;7.47;;;2.25;;
17658;SDS011;8948;51.534;8.262;2022-10-22T16:26:55;13.85;;;1.95;;
17658;SDS011;8948;51.534;8.262;2022-10-22T16:31:56;10.50;;;1.95;;
17658;SDS011;8948;51.534;8.262;2022-10-22T16:36:56;8.52;;;1.63;;
17658;SDS011;8948;51.534;8.262;2022-10-22T16:41:57;9.43;;;2.25;;
17658;SDS011;8948;51.534;8.262;2022-10-22T16:46:57;12.82;;;2.08;;
17658;SDS011;8948;51.534;8.262;2022-10-22T16:51:59;7.68;;;1.95;;
17658;SDS011;8948;51.534;8.262;2022-10-22T16:57:00;4.32;;;1.60;;
17658;SDS011;8948;51.534;8.262;2022-10-22T17:02:00;11.35;;;1.90;;
17658;SDS011;8948;51.534;8.262;2022-10-22T17:07:01;4.13;;;1.30;;
17658;SDS011;8948;51.534;8.262;2022-10-22T17:12:02;6.53;;;1.48;;
17658;SDS011;8948;51.534;8.262;2022-10-22T17:17:03;7.63;;;1.30;;
17658;SDS011;8948;51.534;8.262;2022-10-22T17:22:03;7.57;;;1.27;;
17658;SDS011;8948;51.534;8.262;2022-10-22T17:27:04;5.32;;;1.10;;
17658;SDS011;8948;51.534;8.262;2022-10-22T17:32:04;7.72;;;1.60;;
17658;SDS011;8948;51.534;8.262;2022-10-22T17:37:05;10.43;;;1.48;;
17658;SDS011;8948;51.534;8.262;2022-10-22T17:42:05;14.23;;;1.67;;
17658;SDS011;8948;51.534;8.262;2022-10-22T17:47:06;11.13;;;1.52;;
17658;SDS011;8948;51.534;8.262;2022-10-22T17:52:07;5.28;;;1.77;;
17658;SDS011;8948;51.534;8.262;2022-10-22T17:57:11;8.75;;;1.48;;
17658;SDS011;8948;51.534;8.262;2022-10-22T18:02:13;11.23;;;1.65;;
17658;SDS011;8948;51.534;8.262;2022-10-22T18:07:15;8.68;;;1.25;;
17658;SDS011;8948;51.534;8.262;2022-10-22T18:12:16;6.85;;;1.38;;
17658;SDS011;8948;51.534;8.262;2022-10-22T18:17:17;15.00;;;1.42;;
17658;SDS011;8948;51.534;8.262;2022-10-22T18:22:17;8.98;;;1.90;;
17658;SDS011;8948;51.534;8.262;2022-10-22T18:27:18;3.10;;;1.27;;
17658;SDS011;8948;51.534;8.262;2022-10-22T18:32:18;12.10;;;1.75;;
17658;SDS011;8948;51.534;8.262;2022-10-22T18:37:19;4.63;;;1.55;;
17658;SDS011;8948;51.534;8.262;2022-10-22T18:42:19;4.35;;;1.35;;
17658;SDS011;8948;51.534;8.262;2022-10-22T18:47:20;7.78;;;1.80;;
17658;SDS011;8948;51.534;8.262;2022-10-22T18:52:20;8.57;;;1.88;;
17658;SDS011;8948;51.534;8.262;2022-10-22T18:57:21;13.95;;;2.10;;
17658;SDS011;8948;51.534;8.262;2022-10-22T19:02:21;8.63;;;2.08;;
17658;SDS011;8948;51.534;8.262;2022-10-22T19:07:22;7.85;;;1.70;;
17658;SDS011;8948;51.534;8.262;2022-10-22T19:12:23;9.30;;;2.03;;
17658;SDS011;8948;51.534;8.262;2022-10-22T19:17:23;7.30;;;1.75;;
17658;SDS011;8948;51.534;8.262;2022-10-22T19:22:24;9.32;;;1.70;;
17658;SDS011;8948;51.534;8.262;2022-10-22T19:27:24;8.48;;;1.92;;
17658;SDS011;8948;51.534;8.262;2022-10-22T19:32:25;13.82;;;1.90;;
17658;SDS011;8948;51.534;8.262;2022-10-22T19:37:25;8.82;;;2.05;;
17658;SDS011;8948;51.534;8.262;2022-10-22T19:42:26;8.70;;;1.67;;
17658;SDS011;8948;51.534;8.262;2022-10-22T19:47:26;7.72;;;1.90;;
17658;SDS011;8948;51.534;8.262;2022-10-22T19:52:28;10.90;;;2.45;;
17658;SDS011;8948;51.534;8.262;2022-10-22T19:57:28;4.85;;;1.83;;
17658;SDS011;8948;51.534;8.262;2022-10-22T20:02:29;13.48;;;2.13;;
17658;SDS011;8948;51.534;8.262;2022-10-22T20:07:29;12.75;;;2.08;;
17658;SDS011;8948;51.534;8.262;2022-10-22T20:12:30;13.38;;;1.92;;
17658;SDS011;8948;51.534;8.262;2022-10-22T20:17:31;9.80;;;2.20;;
17658;SDS011;8948;51.534;8.262;2022-10-22T20:22:32;13.85;;;3.08;;
17658;SDS011;8948;51.534;8.262;2022-10-22T20:27:33;9.10;;;2.30;;
17658;SDS011;8948;51.534;8.262;2022-10-22T20:32:37;10.65;;;2.00;;
17658;SDS011;8948;51.534;8.262;2022-10-22T20:37:38;14.70;;;2.40;;
17658;SDS011;8948;51.534;8.262;2022-10-22T20:42:39;6.95;;;1.98;;
17658;SDS011;8948;51.534;8.262;2022-10-22T20:47:39;5.63;;;2.15;;
17658;SDS011;8948;51.534;8.262;2022-10-22T20:52:40;8.82;;;2.50;;
17658;SDS011;8948;51.534;8.262;2022-10-22T20:57:40;19.63;;;2.00;;
17658;SDS011;8948;51.534;8.262;2022-10-22T21:02:41;8.65;;;2.50;;
17658;SDS011;8948;51.534;8.262;2022-10-22T21:07:42;12.98;;;2.10;;
17658;SDS011;8948;51.534;8.262;2022-10-22T21:12:42;24.95;;;2.90;;
17658;SDS011;8948;51.534;8.262;2022-10-22T21:17:44;9.27;;;2.40;;
17658;SDS011;8948;51.534;8.262;2022-10-22T21:22:44;12.60;;;2.38;;
17658;SDS011;8948;51.534;8.262;2022-10-22T21:27:45;10.30;;;2.60;;
17658;SDS011;8948;51.534;8.262;2022-10-22T21:32:45;11.13;;;2.55;;
17658;SDS011;8948;51.534;8.262;2022-10-22T21:37:46;9.20;;;3.00;;
17658;SDS011;8948;51.534;8.262;2022-10-22T21:42:48;8.45;;;1.83;;
17658;SDS011;8948;51.534;8.262;2022-10-22T21:47:49;19.02;;;2.40;;
17658;SDS011;8948;51.534;8.262;2022-10-22T21:52:49;13.05;;;2.58;;
17658;SDS011;8948;51.534;8.262;2022-10-22T21:57:50;8.82;;;2.35;;
17658;SDS011;8948;51.534;8.262;2022-10-22T22:02:50;11.68;;;2.20;;
17658;SDS011;8948;51.534;8.262;2022-10-22T22:07:51;10.07;;;2.38;;
17658;SDS011;8948;51.534;8.262;2022-10-22T22:12:51;16.70;;;3.33;;
17658;SDS011;8948;51.534;8.262;2022-10-22T22:17:52;12.95;;;2.20;;
17658;SDS011;8948;51.534;8.262;2022-10-22T22:22:52;13.68;;;2.05;;
17658;SDS011;8948;51.534;8.262;2022-10-22T22:27:53;27.55;;;2.65;;
17658;SDS011;8948;51.534;8.262;2022-10-22T22:32:53;16.48;;;2.58;;
17658;SDS011;8948;51.534;8.262;2022-10-22T22:37:54;13.00;;;2.55;;
17658;SDS011;8948;51.534;8.262;2022-10-22T22:42:54;12.82;;;2.97;;
17658;SDS011;8948;51.534;8.262;2022-10-22T22:47:55;14.57;;;2.50;;
17658;SDS011;8948;51.534;8.262;2022-10-22T22:52:55;8.68;;;2.22;;
17658;SDS011;8948;51.534;8.262;2022-10-22T22:57:56;14.88;;;1.83;;
17658;SDS011;8948;51.534;8.262;2022-10-22T23:02:57;10.65;;;2.53;;
17658;SDS011;8948;51.534;8.262;2022-10-22T23:07:58;14.02;;;2.60;;
17658;SDS011;8948;51.534;8.262;2022-10-22T23:12:58;14.77;;;2.17;;
17658;SDS011;8948;51.534;8.262;2022-10-22T23:17:59;8.60;;;1.88;;
17658;SDS011;8948;51.534;8.262;2022-10-22T23:22:59;9.20;;;1.95;;
17658;SDS011;8948;51.534;8.262;2022-10-22T23:28:00;13.70;;;2.58;;
17658;SDS011;8948;51.534;8.262;2022-10-22T23:33:00;9.20;;;2.05;;
17658;SDS011;8948;51.534;8.262;2022-10-22T23:38:01;16.50;;;2.72;;
17658;SDS011;8948;51.534;8.262;2022-10-22T23:43:02;9.52;;;2.35;;
17658;SDS011;8948;51.534;8.262;2022-10-22T23:48:03;14.88;;;2.03;;
17658;SDS011;8948;51.534;8.262;2022-10-22T23:53:04;11.30;;;2.17;;
17658;SDS011;8948;51.534;8.262;2022-10-22T23:58:04;13.13;;;2.00;;
